Anza Borrego Desert Research Center, California Weather observations

Data are for 10 minute period ending at time listed.
 Day   Time   Solar   Ave.   Ave.  Ave.  Vector  Max.   Baro.   Total    
  of    of     Rad.   Air    Rel.  Wind   Wind   Wind  Press.  Precip.   
Year   Day            Temp.  Hum.  Speed  Dir.   Gust                    
2015   (PST)  Kw/m2    F      %     mph   deg.    mph    mb.     in.     
-------------------------------------------------------------------------
  88   21:50   0.00   75.7    20    2.3   127     3.7   501.8    0.00 
  88   22:00   0.00   76.4    19    2.5   202     4.0   501.8    0.00 
  88   22:10   0.00   76.3    20    2.2   128     6.3   501.8    0.00 
  88   22:20   0.00   77.3    21    3.5    94     7.3   501.8    0.00 
  88   22:30   0.00   75.6    22    1.8     3     4.0   501.8    0.00 
  88   22:40   0.00   76.5    22    1.6   234     3.7   501.8    0.00 
  88   22:50   0.00   74.9    22    1.5   246     6.8   501.8    0.00 
  88   23:00   0.00   73.2    23    4.9   243     7.5   501.8    0.00 
  88   23:10   0.00   72.5    24    3.6   244     4.8   501.8    0.00 
  88   23:20   0.00   71.2    24    3.9   204     5.3   501.8    0.00 
  88   23:30   0.00   72.3    22    3.0   205     5.0   501.8    0.00 
  88   23:40   0.00   74.2    22    2.3   212     5.6   501.8    0.00 
  88   23:50   0.00   72.6    22    2.0   300     3.8   501.8    0.00 
  89    0:00   0.00   70.0    24    2.8   270     5.1   501.8    0.00 
  89    0:10   0.00   69.6    23    4.3   251     5.8   501.8    0.00 
  89    0:20   0.00   69.6    21    5.6   251     7.0   501.8    0.00 
  89    0:30   0.00   70.2    19    4.3   226     7.8   501.8    0.00 
  89    0:40   0.00   72.6    19    1.8   162     3.3   501.8    0.00 
  89    0:50   0.00   70.9    19    2.0   297     4.9   501.8    0.00 
  89    1:00   0.00   69.1    25    4.7   325     5.5   501.8    0.00 
  89    1:10   0.00   69.1    25    3.5   274     5.0   501.8    0.00 
  89    1:20   0.00   67.3    25    3.9   208     6.2   501.8    0.00 
  89    1:30   0.00   68.3    22    4.6   237     6.5   501.8    0.00 
  89    1:40   0.00   68.7    20    5.2   249     7.7   501.8    0.00 
  89    1:50   0.00   67.6    19    3.7   253     6.4   501.8    0.00 
  89    2:00   0.00   67.9    19    3.6   244     5.6   501.8    0.00 
  89    2:10   0.00   69.1    18    6.0   224     7.7   501.8    0.00 
  89    2:20   0.00   69.4    18    4.1   223     5.4   501.8    0.00 
  89    2:30   0.00   68.1    20    2.8   230     4.7   501.8    0.00 
  89    2:40   0.00   67.2    20    1.6   240     4.3   501.8    0.00 
  89    2:50   0.00   69.1    20    1.9   283     3.9   501.8    0.00 
  89    3:00   0.00   69.8    19    3.5   232     5.8   501.8    0.00 
  89    3:10   0.00   68.6    20    4.7   222     6.2   501.8    0.00 
  89    3:20   0.00   69.8    20    4.6   209     6.9   501.8    0.00 
  89    3:30   0.00   71.2    19    1.8   172     4.1   501.8    0.00 
  89    3:40   0.00   70.2    20    2.3   239     3.5   501.8    0.00 
  89    3:50   0.00   68.1    22    3.6   283     5.0   501.8    0.00 
  89    4:00   0.00   66.8    22    2.6   291     4.5   501.8    0.00 
  89    4:10   0.00   66.0    22    2.0   248     2.8   501.8    0.00 
  89    4:20   0.00   67.1    22    3.6   226     5.7   501.8    0.00 
  89    4:30   0.00   68.1    21    2.7   211     4.0   501.8    0.00 
  89    4:40   0.00   69.0    21    2.8   246     5.0   501.8    0.00 
  89    4:50   0.00   69.3    21    1.8   295     2.7   501.8    0.00 
  89    5:00   0.00   65.7    23    2.7   263     4.5   501.8    0.00 
  89    5:10   0.00   65.1    24    2.6   299     3.7   501.8    0.00 
  89    5:20   0.00   65.5    24    1.6   223     3.7   501.8    0.00 
  89    5:30   0.00   65.4    23    3.2   202     4.0   501.8    0.00 
  89    5:40   0.00   66.5    23    4.5   218     6.0   501.8    0.00 
  89    5:50   0.00   67.8    22    4.2   222     5.6   501.8    0.00 
  89    6:00   0.02   67.7    22    2.5   236     4.7   501.8    0.00 
  89    6:10   0.05   67.4    23    5.4   256     6.9   501.8    0.00 
  89    6:20   0.08   69.9    21    3.8   209     5.3   501.8    0.00 
  89    6:30   0.11   72.8    20    4.4   190     5.2   501.8    0.00 
  89    6:40   0.14   75.7    18    2.7   214     4.4   501.8    0.00 
  89    6:50   0.18   78.0    18    1.6   274     3.1   501.8    0.00 
  89    7:00   0.21   77.2    19    1.2   330     2.3   501.8    0.00 
  89    7:10   0.25   77.6    18    2.3   356     3.9   501.8    0.00 
  89    7:20   0.29   77.9    18    2.6   346     3.6   501.8    0.00 
  89    7:30   0.33   79.6    17    2.1     4     3.1   501.8    0.00 
  89    7:40   0.37   81.7    16    1.9    47     3.1   501.8    0.00 
  89    7:50   0.40   82.7    15    1.7    54     3.1   501.8    0.00 
  89    8:00   0.44   83.4    15    1.3    80     3.1   501.8    0.00 
  89    8:10   0.48   84.5    14    1.3    84     2.1   501.9    0.00 
  89    8:20   0.51   85.0    14    2.1    63     3.9   502.0    0.00 
  89    8:30   0.55   84.8    14    2.4    84     4.8   502.0    0.00 
  89    8:40   0.58   85.6    13    1.5    92     4.0   502.0    0.00 
  89    8:50   0.61   86.6    13    1.5    61     4.0   502.0    0.00 
  89    9:00   0.64   86.7    13    2.3    29     3.9   502.0    0.00 
  89    9:10   0.67   87.5    12    1.6   110     3.9   502.0    0.00 
  89    9:20   0.70   89.2    12    1.6   103     4.1   502.0    0.00 
  89    9:30   0.73   89.2    11    2.2   109     4.8   502.1    0.00 
  89    9:40   0.76   89.4    11    2.4    82     5.0   502.1    0.00 
  89    9:50   0.78   89.7    11    4.4    83     6.7   502.1    0.00 
  89   10:00   0.81   89.6    11    4.3    82     8.0   502.1    0.00 
  89   10:10   0.82   89.5    11    3.8    94     8.3   502.1    0.00 
  89   10:20   0.85   89.9    12    3.9    77     7.3   502.1    0.00 
  89   10:30   0.86   90.5    11    5.2   120     9.8   502.1    0.00 
  89   10:40   0.88   90.5    11    4.5   116    10.5   502.1    0.00 
  89   10:50   0.89   90.8    11    4.2   108     8.6   502.1    0.00 
  89   11:00   0.91   91.4    11    3.3   100     9.1   502.2    0.00 
  89   11:10   0.92   91.8    11    5.5    99    10.9   502.2    0.00 
  89   11:20   0.93   91.9    11    4.8    78     9.7   502.2    0.00 
  89   11:30   0.94   91.8    11    5.2    94     9.5   502.2    0.00 
  89   11:40   0.94   92.6    11    4.6    73     8.3   502.1    0.00 
  89   11:50   0.94   92.4    11    4.7    95    10.7   502.1    0.00 
  89   12:00   0.94   92.5    10    3.4    99    10.4   502.1    0.00 
  89   12:10   0.94   94.0    10    2.8    75     9.5   502.1    0.00 
  89   12:20   0.93   93.7    10    6.2   150    12.3   502.2    0.00 
  89   12:30   0.93   93.1     9    4.0    64    10.9   502.2    0.00 
  89   12:40   0.92   93.4     9    4.2   358     7.5   502.3    0.00 
  89   12:50   0.88   93.8     9    7.3    92    14.2   502.3    0.00 
  89   13:00   0.90   94.1     9    7.6   115    15.6   502.3    0.00 
  89   13:10   0.89   93.8     9    5.0   108    10.9   621.8    0.00 
  89   13:20   0.87   94.2     9    6.8    95    14.4   981.3    0.00 
  89   13:30   0.85   94.2     9    7.8   131    12.9   981.5    0.00 
  89   13:40   0.83   94.3     9    7.5   116    12.3   981.5    0.00 
  89   13:50   0.81   94.8    10    7.5   126    13.1   981.3    0.00 
  89   14:00   0.79   93.8    10    9.2   100    14.6   981.2    0.00 
  89   14:10   0.76   94.2    10    8.6   136    13.1   981.0    0.00 
  89   14:20   0.74   94.7    10    7.6   128    12.0   980.9    0.00 
  89   14:30   0.71   94.0    10    7.5   100    14.4   980.8    0.00 
  89   14:40   0.68   94.0    10    7.9    85    12.5   980.7    0.00 
  89   14:50   0.65   94.3    10    6.1    80    11.0   980.7    0.00 
  89   15:00   0.61   94.8    10    6.3   118    12.0   980.5    0.00 
  89   15:10   0.58   94.5    10    6.8    87    11.6   980.4    0.00 
  89   15:20   0.55   94.5    10    7.2   104    12.4   980.3    0.00 
  89   15:30   0.52   94.0    10    5.2   113     9.9   980.3    0.00 
  89   15:40   0.48   94.0    10    6.7    90    11.5   980.2    0.00 
  89   15:50   0.45   94.2    10    3.8    75    10.1   980.1    0.00 
  89   16:00   0.41   94.0    11    6.4    94    12.3   980.0    0.00 
  89   16:10   0.37   93.7    11    8.1    95    12.9   979.9    0.00 
  89   16:20   0.34   93.8    11    7.1   104    11.8   979.4    0.00 
  89   16:30   0.30   94.0    11    3.4    89     7.5   976.8    0.00 
  89   16:40   0.26   94.1    11    6.5   109     9.8   786.9    0.00 
  89   16:50   0.22   94.0    11    5.9   134     9.1   502.3    0.00 
  89   17:00   0.19   93.4    13    6.4   206    10.7   502.3    0.00 
  89   17:10   0.04   91.6    15    9.4   243    15.4   502.2    0.00 
  89   17:20   0.03   89.8    15   10.8   244    16.5   502.1    0.00 
  89   17:30   0.02   89.3    16   11.7   245    17.5   502.1    0.00 
  89   17:40   0.01   88.6    16    7.4   243    11.3   502.1    0.00 
  89   17:50   0.01   88.3    16   11.1   240    16.4   502.1    0.00 
  89   18:00   0.01   87.7    17    9.7   230    14.2   502.1    0.00 
  89   18:10   0.00   87.4    16    9.2   236    13.3   502.0    0.00 
  89   18:20   0.00   86.6    17    8.7   231    12.1   502.0    0.00 
  89   18:30   0.00   86.0    17    9.1   230    13.2   502.0    0.00 
  89   18:40   0.00   85.8    16    8.9   235    13.4   502.0    0.00 
  89   18:50   0.00   85.7    16    9.4   238    13.9   502.0    0.00 
  89   19:00   0.00   85.8    15    8.8   239    14.9   502.0    0.00 
  89   19:10   0.00   85.5    16    5.3   243    11.1   502.0    0.00 
  89   19:20   0.00   84.9    15    3.7   236     8.3   502.0    0.00 
  89   19:30   0.00   85.1    14    1.9   236     5.5   502.0    0.00 
  89   19:40   0.00   84.3    16    2.4    42     4.8   502.0    0.00 
  89   19:50   0.00   84.0    16    3.0   188     6.4   502.0    0.00 
  89   20:00   0.00   83.2    17    2.3    70     4.4   502.0    0.00 
  89   20:10   0.00   83.0    16    3.1   193     5.3   502.0    0.00 
  89   20:20   0.00   83.1    15    3.2   106     5.7   502.0    0.00 
  89   20:30   0.00   81.2    17    3.7   291     6.2   502.0    0.00 
  89   20:40   0.00   80.2    18    5.2   330     7.5   502.0    0.00 
  89   20:50   0.00   81.0    18    3.8   330     5.8   501.9    0.00 
  89   21:00   0.00   79.9    19    0.9   182     2.9   501.9    0.00 
  89   21:10   0.00   80.4    19    0.8   282     2.2   501.9    0.00 
  89   21:20   0.00   78.8    20    2.7   337     5.0   501.8    0.00 
  89   21:30   0.00   76.6    22    3.6   340     5.2   501.8    0.00 
  89   21:40   0.00   77.0    21    2.9   333     4.2   501.8    0.00 

Return to Anza Borrego Desert Research Center graphs page.


Western Regional Climate Center,wrcc@dri.edu